Comodoro Rivadavia, Argentina

7:55 AM ART on April 28, 2015 (GMT -0300)
GEN. Enrique Mosconi International | | Change Station
CLOSE
Current Station
Airport
Location: Comodoro Rivadavia,
Elevation: 151 ft
Nearby Weather Stations

Elev 151 ft 45.78 °S, 67.50 °W | Updated 55 minutes ago

Scattered Clouds
Scattered Clouds
55 °F
Feels Like 55 °F
N
10
Wind Variable Wind from NNW

Today
High -- | Low -- °F
--% Chance of Precip.
Yesterday
High -- | Low -- °F
Precip. -- in
8:22 AM 6:32 PM
Waxing Gibbous, 73% visible
Pressure 29.98 in
Visibility 6.2 miles
Clouds Few 1800 ft
Scattered Clouds 8000 ft
Dew Point 46 °F
Humidity 72%
Rainfall 0.00 in
Snow Depth Not available.
UV 0 out of 12
Pollen Not available.
Air Quality Not available.
Flu Activity Not available.
METAR SAVC 281000Z 34009KT 300V040 9999 FEW018 SCT080 13/08 Q1015

More Conditions Fewer Conditions

Pressure 29.98 in
Visibility 6.2 miles
Clouds Few 1800 ft
Scattered Clouds 8000 ft
Dew Point 46 °F
Humidity 72%
Rainfall 0.00 in
Snow Depth Not available.
UV 0 out of 12
Pollen Not available.
Air Quality Not available.
Flu Activity Not available.
METAR SAVC 281000Z 34009KT 300V040 9999 FEW018 SCT080 13/08 Q1015

More Conditions Fewer Conditions

10-Day Weather Forecast

Almanac

Astronomy

Apr. 28, 2015 Rise Set
Actual Time
Civil Twilight
Nautical Twilight
Astronomical Twilight
Moon
Length of Visible Light
Length of Day
Tomorrow will be .
, % of the Moon is Illuminated

Today's Extremes

Country Highs Country Lows

Community

WunderPhotos

Upload Photos

1,817,603 photos uploaded!

WunderBlogs® & News

Nearby

Air Quality

  Air Quality AQ Index Pollutant
Not available.

Snow Depth

Station Depth Elevation

Earthquake Activity

City Distance Mag. Time & Date
Minimum magnitude displayed is 2.5.

Coastal Water Temperatures

Place Temperature

Stations

Nearby Weather Stations

Station Location Temp. Windchill Dew Point Humidity Wind Precip. Elev Updated Type